Terminal Aerodrome Forecast
Issued by NWS

Home | Current Version | Previous Version | Text Only | Print | Product List | Glossary On
Versions: 1 2 3 4 5 6 7 8 9 10 11 12
000
FTUS46 KHNX 052320
TAFBFL
TAF
KBFL 052320Z 0600/0624 33010KT P6SM SKC
     FM060300 36005KT P6SM SKC
     FM061100 12005KT P6SM SKC
     FM062000 29008KT P6SM SKC=

USA.gov is the U.S. government's official web portal to all federal, state and local government web resources and services.